sensor_id;sensor_type;location;lat;lon;timestamp;P1;durP1;ratioP1;P2;durP2;ratioP2
76896;SDS011;65856;52.178;21.176;2023-07-13T00:02:17;12.80;;;10.10;;
76896;SDS011;65856;52.178;21.176;2023-07-13T00:04:43;10.40;;;8.70;;
76896;SDS011;65856;52.178;21.176;2023-07-13T00:07:08;11.00;;;8.50;;
76896;SDS011;65856;52.178;21.176;2023-07-13T00:09:34;11.20;;;8.40;;
76896;SDS011;65856;52.178;21.176;2023-07-13T00:12:01;10.70;;;9.20;;
76896;SDS011;65856;52.178;21.176;2023-07-13T00:14:28;11.30;;;8.50;;
76896;SDS011;65856;52.178;21.176;2023-07-13T00:16:55;11.40;;;9.90;;
76896;SDS011;65856;52.178;21.176;2023-07-13T00:19:21;11.80;;;9.60;;
76896;SDS011;65856;52.178;21.176;2023-07-13T00:21:46;9.80;;;8.30;;
76896;SDS011;65856;52.178;21.176;2023-07-13T00:24:15;11.10;;;8.40;;
76896;SDS011;65856;52.178;21.176;2023-07-13T00:26:48;10.30;;;9.20;;
76896;SDS011;65856;52.178;21.176;2023-07-13T00:29:13;11.30;;;9.90;;
76896;SDS011;65856;52.178;21.176;2023-07-13T00:31:39;13.50;;;10.40;;
76896;SDS011;65856;52.178;21.176;2023-07-13T00:34:05;13.70;;;9.80;;
76896;SDS011;65856;52.178;21.176;2023-07-13T00:36:31;11.60;;;10.00;;
76896;SDS011;65856;52.178;21.176;2023-07-13T00:38:57;12.10;;;9.60;;
76896;SDS011;65856;52.178;21.176;2023-07-13T00:41:23;11.70;;;10.00;;
76896;SDS011;65856;52.178;21.176;2023-07-13T00:43:48;13.40;;;11.20;;
76896;SDS011;65856;52.178;21.176;2023-07-13T00:46:26;13.00;;;9.70;;
76896;SDS011;65856;52.178;21.176;2023-07-13T00:48:59;10.10;;;8.30;;
76896;SDS011;65856;52.178;21.176;2023-07-13T00:51:35;11.60;;;8.90;;
76896;SDS011;65856;52.178;21.176;2023-07-13T00:54:23;12.60;;;9.60;;
76896;SDS011;65856;52.178;21.176;2023-07-13T00:56:57;12.20;;;9.40;;
76896;SDS011;65856;52.178;21.176;2023-07-13T01:01:51;12.20;;;9.90;;
76896;SDS011;65856;52.178;21.176;2023-07-13T01:04:17;14.70;;;9.90;;
76896;SDS011;65856;52.178;21.176;2023-07-13T01:06:44;14.10;;;9.50;;
76896;SDS011;65856;52.178;21.176;2023-07-13T01:09:12;13.00;;;9.10;;
76896;SDS011;65856;52.178;21.176;2023-07-13T01:11:39;13.10;;;9.50;;
76896;SDS011;65856;52.178;21.176;2023-07-13T01:14:06;10.80;;;9.00;;
76896;SDS011;65856;52.178;21.176;2023-07-13T01:16:34;11.30;;;9.20;;
76896;SDS011;65856;52.178;21.176;2023-07-13T01:19:10;13.00;;;9.40;;
76896;SDS011;65856;52.178;21.176;2023-07-13T01:22:02;14.00;;;10.60;;
76896;SDS011;65856;52.178;21.176;2023-07-13T01:24:35;12.60;;;10.40;;
76896;SDS011;65856;52.178;21.176;2023-07-13T01:27:02;13.40;;;9.70;;
76896;SDS011;65856;52.178;21.176;2023-07-13T01:29:33;12.40;;;9.60;;
76896;SDS011;65856;52.178;21.176;2023-07-13T01:32:00;11.80;;;9.20;;
76896;SDS011;65856;52.178;21.176;2023-07-13T01:34:27;14.10;;;9.90;;
76896;SDS011;65856;52.178;21.176;2023-07-13T01:36:53;10.60;;;9.20;;
76896;SDS011;65856;52.178;21.176;2023-07-13T01:39:21;13.50;;;9.60;;
76896;SDS011;65856;52.178;21.176;2023-07-13T01:41:47;14.60;;;10.20;;
76896;SDS011;65856;52.178;21.176;2023-07-13T01:44:13;11.60;;;9.70;;
76896;SDS011;65856;52.178;21.176;2023-07-13T01:46:39;15.00;;;9.70;;
76896;SDS011;65856;52.178;21.176;2023-07-13T01:49:04;10.30;;;9.00;;
76896;SDS011;65856;52.178;21.176;2023-07-13T01:51:30;12.20;;;9.10;;
76896;SDS011;65856;52.178;21.176;2023-07-13T01:53:56;11.90;;;9.30;;
76896;SDS011;65856;52.178;21.176;2023-07-13T01:56:21;13.60;;;9.60;;
76896;SDS011;65856;52.178;21.176;2023-07-13T01:58:47;11.20;;;9.10;;
76896;SDS011;65856;52.178;21.176;2023-07-13T02:01:12;10.50;;;8.60;;
76896;SDS011;65856;52.178;21.176;2023-07-13T02:03:38;14.30;;;8.90;;
76896;SDS011;65856;52.178;21.176;2023-07-13T02:06:04;9.00;;;8.10;;
76896;SDS011;65856;52.178;21.176;2023-07-13T02:08:30;10.70;;;8.60;;
76896;SDS011;65856;52.178;21.176;2023-07-13T02:10:57;10.80;;;8.70;;
76896;SDS011;65856;52.178;21.176;2023-07-13T02:13:23;10.80;;;8.80;;
76896;SDS011;65856;52.178;21.176;2023-07-13T02:15:51;11.70;;;9.00;;
76896;SDS011;65856;52.178;21.176;2023-07-13T02:18:17;11.50;;;9.10;;
76896;SDS011;65856;52.178;21.176;2023-07-13T02:20:44;10.80;;;8.20;;
76896;SDS011;65856;52.178;21.176;2023-07-13T02:23:10;10.10;;;8.20;;
76896;SDS011;65856;52.178;21.176;2023-07-13T02:25:36;10.10;;;8.20;;
76896;SDS011;65856;52.178;21.176;2023-07-13T02:28:01;10.70;;;8.50;;
76896;SDS011;65856;52.178;21.176;2023-07-13T02:30:27;11.50;;;8.20;;
76896;SDS011;65856;52.178;21.176;2023-07-13T02:32:56;10.40;;;8.60;;
76896;SDS011;65856;52.178;21.176;2023-07-13T02:35:22;9.80;;;8.00;;
76896;SDS011;65856;52.178;21.176;2023-07-13T02:37:48;12.20;;;8.80;;
76896;SDS011;65856;52.178;21.176;2023-07-13T02:40:14;10.30;;;8.40;;
76896;SDS011;65856;52.178;21.176;2023-07-13T02:42:40;11.60;;;8.20;;
76896;SDS011;65856;52.178;21.176;2023-07-13T02:45:07;10.40;;;7.80;;
76896;SDS011;65856;52.178;21.176;2023-07-13T02:47:35;8.30;;;7.40;;
76896;SDS011;65856;52.178;21.176;2023-07-13T02:50:02;10.60;;;7.70;;
76896;SDS011;65856;52.178;21.176;2023-07-13T02:52:28;9.10;;;8.20;;
76896;SDS011;65856;52.178;21.176;2023-07-13T02:54:54;10.00;;;8.00;;
76896;SDS011;65856;52.178;21.176;2023-07-13T02:57:20;11.00;;;8.00;;
76896;SDS011;65856;52.178;21.176;2023-07-13T02:59:45;10.00;;;8.00;;
76896;SDS011;65856;52.178;21.176;2023-07-13T03:02:11;10.90;;;8.20;;
76896;SDS011;65856;52.178;21.176;2023-07-13T03:04:37;9.40;;;8.10;;
76896;SDS011;65856;52.178;21.176;2023-07-13T03:07:03;10.60;;;8.40;;
76896;SDS011;65856;52.178;21.176;2023-07-13T03:09:30;11.40;;;7.40;;
76896;SDS011;65856;52.178;21.176;2023-07-13T03:11:58;9.60;;;7.90;;
76896;SDS011;65856;52.178;21.176;2023-07-13T03:14:23;10.20;;;8.10;;
76896;SDS011;65856;52.178;21.176;2023-07-13T03:16:49;9.70;;;7.80;;
76896;SDS011;65856;52.178;21.176;2023-07-13T03:19:15;11.50;;;8.00;;
76896;SDS011;65856;52.178;21.176;2023-07-13T03:21:41;9.30;;;7.70;;
76896;SDS011;65856;52.178;21.176;2023-07-13T03:24:06;11.10;;;8.00;;
76896;SDS011;65856;52.178;21.176;2023-07-13T03:26:32;9.50;;;7.60;;
76896;SDS011;65856;52.178;21.176;2023-07-13T03:28:58;10.00;;;7.10;;
76896;SDS011;65856;52.178;21.176;2023-07-13T03:31:28;10.00;;;9.00;;
76896;SDS011;65856;52.178;21.176;2023-07-13T03:33:59;10.80;;;8.90;;
76896;SDS011;65856;52.178;21.176;2023-07-13T03:36:27;12.00;;;9.30;;
76896;SDS011;65856;52.178;21.176;2023-07-13T03:38:58;10.30;;;8.40;;
76896;SDS011;65856;52.178;21.176;2023-07-13T03:41:25;9.30;;;7.60;;
76896;SDS011;65856;52.178;21.176;2023-07-13T03:43:52;11.20;;;8.80;;
76896;SDS011;65856;52.178;21.176;2023-07-13T03:46:18;8.90;;;7.80;;
76896;SDS011;65856;52.178;21.176;2023-07-13T03:48:45;10.80;;;8.60;;
76896;SDS011;65856;52.178;21.176;2023-07-13T03:51:14;11.20;;;8.90;;
76896;SDS011;65856;52.178;21.176;2023-07-13T03:53:43;12.30;;;8.80;;
76896;SDS011;65856;52.178;21.176;2023-07-13T03:56:11;9.10;;;7.50;;
76896;SDS011;65856;52.178;21.176;2023-07-13T03:58:40;10.40;;;7.40;;
76896;SDS011;65856;52.178;21.176;2023-07-13T04:01:09;11.00;;;7.60;;
76896;SDS011;65856;52.178;21.176;2023-07-13T04:03:36;9.20;;;7.60;;
76896;SDS011;65856;52.178;21.176;2023-07-13T04:06:04;9.60;;;8.30;;
76896;SDS011;65856;52.178;21.176;2023-07-13T04:08:36;11.30;;;7.90;;
76896;SDS011;65856;52.178;21.176;2023-07-13T04:11:03;11.40;;;7.80;;
76896;SDS011;65856;52.178;21.176;2023-07-13T04:13:30;11.00;;;8.40;;
76896;SDS011;65856;52.178;21.176;2023-07-13T04:15:56;11.00;;;8.00;;
76896;SDS011;65856;52.178;21.176;2023-07-13T04:18:21;9.90;;;8.20;;
76896;SDS011;65856;52.178;21.176;2023-07-13T04:20:48;11.80;;;8.40;;
76896;SDS011;65856;52.178;21.176;2023-07-13T04:23:16;12.00;;;8.70;;
76896;SDS011;65856;52.178;21.176;2023-07-13T04:25:46;10.10;;;8.60;;
76896;SDS011;65856;52.178;21.176;2023-07-13T04:28:20;13.10;;;10.00;;
76896;SDS011;65856;52.178;21.176;2023-07-13T04:30:48;14.70;;;10.50;;
76896;SDS011;65856;52.178;21.176;2023-07-13T04:33:14;13.10;;;9.50;;
76896;SDS011;65856;52.178;21.176;2023-07-13T04:35:42;12.30;;;9.90;;
76896;SDS011;65856;52.178;21.176;2023-07-13T04:38:09;12.30;;;9.90;;
76896;SDS011;65856;52.178;21.176;2023-07-13T04:40:37;12.40;;;10.30;;
76896;SDS011;65856;52.178;21.176;2023-07-13T04:43:02;12.10;;;9.90;;
76896;SDS011;65856;52.178;21.176;2023-07-13T04:45:28;14.70;;;10.60;;
76896;SDS011;65856;52.178;21.176;2023-07-13T04:47:56;12.00;;;9.80;;
76896;SDS011;65856;52.178;21.176;2023-07-13T04:50:21;15.00;;;10.90;;
76896;SDS011;65856;52.178;21.176;2023-07-13T04:52:51;13.20;;;10.30;;
76896;SDS011;65856;52.178;21.176;2023-07-13T04:55:18;13.80;;;10.40;;
76896;SDS011;65856;52.178;21.176;2023-07-13T04:57:45;16.80;;;10.20;;
76896;SDS011;65856;52.178;21.176;2023-07-13T05:00:12;13.20;;;10.00;;
76896;SDS011;65856;52.178;21.176;2023-07-13T05:02:44;12.50;;;10.00;;
76896;SDS011;65856;52.178;21.176;2023-07-13T05:05:13;14.80;;;10.10;;
76896;SDS011;65856;52.178;21.176;2023-07-13T05:07:39;12.80;;;10.00;;
76896;SDS011;65856;52.178;21.176;2023-07-13T05:10:04;16.30;;;10.90;;
76896;SDS011;65856;52.178;21.176;2023-07-13T05:12:31;12.80;;;10.30;;
76896;SDS011;65856;52.178;21.176;2023-07-13T05:14:56;13.90;;;10.10;;
76896;SDS011;65856;52.178;21.176;2023-07-13T05:17:22;14.70;;;10.00;;
76896;SDS011;65856;52.178;21.176;2023-07-13T05:19:47;15.00;;;10.60;;
76896;SDS011;65856;52.178;21.176;2023-07-13T05:22:13;13.60;;;10.50;;
76896;SDS011;65856;52.178;21.176;2023-07-13T05:24:38;14.20;;;10.30;;
76896;SDS011;65856;52.178;21.176;2023-07-13T05:27:04;12.90;;;10.40;;
76896;SDS011;65856;52.178;21.176;2023-07-13T05:29:30;13.60;;;9.50;;
76896;SDS011;65856;52.178;21.176;2023-07-13T05:31:56;12.40;;;10.00;;
76896;SDS011;65856;52.178;21.176;2023-07-13T05:34:21;13.60;;;10.20;;
76896;SDS011;65856;52.178;21.176;2023-07-13T05:36:48;12.60;;;10.20;;
76896;SDS011;65856;52.178;21.176;2023-07-13T05:39:14;12.10;;;10.80;;
76896;SDS011;65856;52.178;21.176;2023-07-13T05:41:41;16.60;;;11.30;;
76896;SDS011;65856;52.178;21.176;2023-07-13T05:44:07;17.10;;;11.10;;
76896;SDS011;65856;52.178;21.176;2023-07-13T05:46:32;13.30;;;10.80;;
76896;SDS011;65856;52.178;21.176;2023-07-13T05:48:57;14.20;;;10.60;;
76896;SDS011;65856;52.178;21.176;2023-07-13T05:51:23;16.40;;;11.00;;
76896;SDS011;65856;52.178;21.176;2023-07-13T05:53:48;14.10;;;10.30;;
76896;SDS011;65856;52.178;21.176;2023-07-13T05:56:14;15.10;;;11.20;;
76896;SDS011;65856;52.178;21.176;2023-07-13T05:58:39;14.90;;;11.40;;
76896;SDS011;65856;52.178;21.176;2023-07-13T06:01:08;17.20;;;11.20;;
76896;SDS011;65856;52.178;21.176;2023-07-13T06:03:40;13.70;;;11.30;;
76896;SDS011;65856;52.178;21.176;2023-07-13T06:06:07;14.60;;;11.40;;
76896;SDS011;65856;52.178;21.176;2023-07-13T06:08:35;13.70;;;10.80;;
76896;SDS011;65856;52.178;21.176;2023-07-13T06:11:03;13.40;;;10.30;;
76896;SDS011;65856;52.178;21.176;2023-07-13T06:13:31;12.80;;;9.30;;
76896;SDS011;65856;52.178;21.176;2023-07-13T06:16:02;11.30;;;9.80;;
76896;SDS011;65856;52.178;21.176;2023-07-13T06:18:33;13.70;;;10.30;;
76896;SDS011;65856;52.178;21.176;2023-07-13T06:21:00;12.80;;;9.80;;
76896;SDS011;65856;52.178;21.176;2023-07-13T06:23:26;15.30;;;11.20;;
76896;SDS011;65856;52.178;21.176;2023-07-13T06:25:52;11.80;;;9.80;;
76896;SDS011;65856;52.178;21.176;2023-07-13T06:28:17;15.00;;;9.20;;
76896;SDS011;65856;52.178;21.176;2023-07-13T06:30:43;10.90;;;8.60;;
76896;SDS011;65856;52.178;21.176;2023-07-13T06:33:09;14.60;;;8.90;;
76896;SDS011;65856;52.178;21.176;2023-07-13T06:35:34;12.90;;;8.70;;
76896;SDS011;65856;52.178;21.176;2023-07-13T06:38:00;11.30;;;8.60;;
76896;SDS011;65856;52.178;21.176;2023-07-13T06:40:27;9.00;;;6.90;;
76896;SDS011;65856;52.178;21.176;2023-07-13T06:42:54;9.00;;;6.90;;
76896;SDS011;65856;52.178;21.176;2023-07-13T06:45:19;10.50;;;6.90;;
76896;SDS011;65856;52.178;21.176;2023-07-13T06:47:45;8.00;;;6.10;;
76896;SDS011;65856;52.178;21.176;2023-07-13T06:50:10;8.20;;;5.80;;
76896;SDS011;65856;52.178;21.176;2023-07-13T06:52:36;8.00;;;5.80;;
76896;SDS011;65856;52.178;21.176;2023-07-13T06:55:02;7.70;;;5.60;;
76896;SDS011;65856;52.178;21.176;2023-07-13T06:57:28;7.70;;;4.80;;
76896;SDS011;65856;52.178;21.176;2023-07-13T06:59:53;6.30;;;5.10;;
76896;SDS011;65856;52.178;21.176;2023-07-13T07:02:19;6.50;;;5.20;;
76896;SDS011;65856;52.178;21.176;2023-07-13T07:04:44;6.40;;;4.50;;
76896;SDS011;65856;52.178;21.176;2023-07-13T07:07:09;7.60;;;4.60;;
76896;SDS011;65856;52.178;21.176;2023-07-13T07:09:35;6.00;;;4.50;;
76896;SDS011;65856;52.178;21.176;2023-07-13T07:12:02;5.70;;;5.00;;
76896;SDS011;65856;52.178;21.176;2023-07-13T07:14:29;7.10;;;4.50;;
76896;SDS011;65856;52.178;21.176;2023-07-13T07:16:55;5.20;;;4.20;;
76896;SDS011;65856;52.178;21.176;2023-07-13T07:19:23;5.70;;;4.30;;
76896;SDS011;65856;52.178;21.176;2023-07-13T07:21:49;5.30;;;4.30;;
76896;SDS011;65856;52.178;21.176;2023-07-13T07:24:14;5.20;;;4.50;;
76896;SDS011;65856;52.178;21.176;2023-07-13T07:26:40;5.30;;;4.50;;
76896;SDS011;65856;52.178;21.176;2023-07-13T07:29:06;6.90;;;5.10;;
76896;SDS011;65856;52.178;21.176;2023-07-13T07:31:32;12.40;;;5.10;;
76896;SDS011;65856;52.178;21.176;2023-07-13T07:33:57;5.90;;;4.00;;
76896;SDS011;65856;52.178;21.176;2023-07-13T07:36:23;3.80;;;3.40;;
76896;SDS011;65856;52.178;21.176;2023-07-13T07:38:48;4.70;;;3.90;;
76896;SDS011;65856;52.178;21.176;2023-07-13T07:41:14;6.40;;;4.40;;
76896;SDS011;65856;52.178;21.176;2023-07-13T07:43:39;7.60;;;3.40;;
76896;SDS011;65856;52.178;21.176;2023-07-13T07:46:05;3.20;;;2.90;;
76896;SDS011;65856;52.178;21.176;2023-07-13T07:48:31;3.80;;;2.90;;
76896;SDS011;65856;52.178;21.176;2023-07-13T07:50:57;5.10;;;3.60;;
76896;SDS011;65856;52.178;21.176;2023-07-13T07:53:23;4.30;;;3.90;;
76896;SDS011;65856;52.178;21.176;2023-07-13T07:55:48;5.50;;;3.90;;
76896;SDS011;65856;52.178;21.176;2023-07-13T07:58:16;6.40;;;3.80;;
76896;SDS011;65856;52.178;21.176;2023-07-13T08:00:41;8.20;;;4.60;;
76896;SDS011;65856;52.178;21.176;2023-07-13T08:03:07;5.50;;;4.70;;
76896;SDS011;65856;52.178;21.176;2023-07-13T08:05:35;7.90;;;6.10;;
76896;SDS011;65856;52.178;21.176;2023-07-13T08:08:02;8.40;;;6.20;;
76896;SDS011;65856;52.178;21.176;2023-07-13T08:10:28;7.70;;;6.30;;
76896;SDS011;65856;52.178;21.176;2023-07-13T08:12:54;8.90;;;6.50;;
76896;SDS011;65856;52.178;21.176;2023-07-13T08:15:20;8.40;;;6.90;;
76896;SDS011;65856;52.178;21.176;2023-07-13T08:17:47;10.30;;;6.50;;
76896;SDS011;65856;52.178;21.176;2023-07-13T08:20:14;7.50;;;6.60;;
76896;SDS011;65856;52.178;21.176;2023-07-13T08:22:40;12.60;;;6.90;;
76896;SDS011;65856;52.178;21.176;2023-07-13T08:25:06;7.60;;;6.70;;
76896;SDS011;65856;52.178;21.176;2023-07-13T08:27:33;10.20;;;6.50;;
76896;SDS011;65856;52.178;21.176;2023-07-13T08:29:58;8.20;;;6.60;;
76896;SDS011;65856;52.178;21.176;2023-07-13T08:32:24;6.20;;;5.10;;
76896;SDS011;65856;52.178;21.176;2023-07-13T08:34:50;7.30;;;4.90;;
76896;SDS011;65856;52.178;21.176;2023-07-13T08:37:17;6.30;;;5.40;;
76896;SDS011;65856;52.178;21.176;2023-07-13T08:39:43;6.10;;;4.90;;
76896;SDS011;65856;52.178;21.176;2023-07-13T08:42:22;5.80;;;4.80;;
76896;SDS011;65856;52.178;21.176;2023-07-13T08:48:41;5.90;;;4.60;;
76896;SDS011;65856;52.178;21.176;2023-07-13T08:51:43;6.00;;;4.70;;
76896;SDS011;65856;52.178;21.176;2023-07-13T08:54:36;7.10;;;4.90;;
76896;SDS011;65856;52.178;21.176;2023-07-13T08:57:17;5.70;;;4.80;;
76896;SDS011;65856;52.178;21.176;2023-07-13T08:59:47;6.40;;;5.10;;
76896;SDS011;65856;52.178;21.176;2023-07-13T09:02:41;8.30;;;5.20;;
76896;SDS011;65856;52.178;21.176;2023-07-13T09:05:29;7.20;;;5.30;;
76896;SDS011;65856;52.178;21.176;2023-07-13T09:08:20;6.70;;;5.40;;
76896;SDS011;65856;52.178;21.176;2023-07-13T09:14:31;6.10;;;5.10;;
76896;SDS011;65856;52.178;21.176;2023-07-13T09:17:13;8.00;;;5.30;;
76896;SDS011;65856;52.178;21.176;2023-07-13T09:20:01;11.20;;;5.40;;
76896;SDS011;65856;52.178;21.176;2023-07-13T09:22:37;6.00;;;5.30;;
76896;SDS011;65856;52.178;21.176;2023-07-13T09:28:02;6.70;;;5.10;;
76896;SDS011;65856;52.178;21.176;2023-07-13T09:33:29;5.60;;;5.00;;
76896;SDS011;65856;52.178;21.176;2023-07-13T09:35:59;5.90;;;5.30;;
76896;SDS011;65856;52.178;21.176;2023-07-13T09:38:28;6.00;;;4.80;;
76896;SDS011;65856;52.178;21.176;2023-07-13T09:44:14;6.30;;;5.20;;
76896;SDS011;65856;52.178;21.176;2023-07-13T09:46:53;9.10;;;5.70;;
76896;SDS011;65856;52.178;21.176;2023-07-13T09:49:24;8.70;;;5.40;;
76896;SDS011;65856;52.178;21.176;2023-07-13T09:52:04;8.10;;;5.20;;
76896;SDS011;65856;52.178;21.176;2023-07-13T09:54:36;6.80;;;5.30;;
76896;SDS011;65856;52.178;21.176;2023-07-13T09:57:08;5.60;;;5.00;;
76896;SDS011;65856;52.178;21.176;2023-07-13T09:59:43;8.00;;;3.90;;
76896;SDS011;65856;52.178;21.176;2023-07-13T10:02:26;3.50;;;3.10;;
76896;SDS011;65856;52.178;21.176;2023-07-13T10:05:10;5.40;;;2.90;;
76896;SDS011;65856;52.178;21.176;2023-07-13T10:07:43;4.00;;;3.10;;
76896;SDS011;65856;52.178;21.176;2023-07-13T10:10:15;6.30;;;3.00;;
76896;SDS011;65856;52.178;21.176;2023-07-13T10:12:46;4.30;;;2.80;;
76896;SDS011;65856;52.178;21.176;2023-07-13T10:15:22;6.00;;;3.10;;
76896;SDS011;65856;52.178;21.176;2023-07-13T10:17:55;6.30;;;2.90;;
76896;SDS011;65856;52.178;21.176;2023-07-13T10:20:24;6.20;;;2.90;;
76896;SDS011;65856;52.178;21.176;2023-07-13T10:22:59;3.80;;;2.90;;
76896;SDS011;65856;52.178;21.176;2023-07-13T10:25:32;4.70;;;2.80;;
76896;SDS011;65856;52.178;21.176;2023-07-13T10:28:25;5.60;;;2.80;;
76896;SDS011;65856;52.178;21.176;2023-07-13T10:30:56;2.90;;;2.50;;
76896;SDS011;65856;52.178;21.176;2023-07-13T10:33:25;5.80;;;2.70;;
76896;SDS011;65856;52.178;21.176;2023-07-13T10:36:27;6.60;;;3.10;;
76896;SDS011;65856;52.178;21.176;2023-07-13T10:39:06;4.20;;;2.90;;
76896;SDS011;65856;52.178;21.176;2023-07-13T10:41:39;3.60;;;2.70;;
76896;SDS011;65856;52.178;21.176;2023-07-13T10:44:16;4.50;;;2.60;;
76896;SDS011;65856;52.178;21.176;2023-07-13T10:46:54;3.40;;;2.40;;
76896;SDS011;65856;52.178;21.176;2023-07-13T10:49:27;3.10;;;2.50;;
76896;SDS011;65856;52.178;21.176;2023-07-13T10:51:55;5.60;;;2.60;;
76896;SDS011;65856;52.178;21.176;2023-07-13T10:54:32;6.10;;;2.60;;
76896;SDS011;65856;52.178;21.176;2023-07-13T11:00:15;5.20;;;2.60;;
76896;SDS011;65856;52.178;21.176;2023-07-13T11:02:43;22.20;;;5.00;;
76896;SDS011;65856;52.178;21.176;2023-07-13T11:05:28;17.30;;;4.80;;
76896;SDS011;65856;52.178;21.176;2023-07-13T11:08:20;7.30;;;2.40;;
76896;SDS011;65856;52.178;21.176;2023-07-13T11:10:59;54.60;;;9.50;;
76896;SDS011;65856;52.178;21.176;2023-07-13T11:18:52;6.90;;;2.60;;
76896;SDS011;65856;52.178;21.176;2023-07-13T11:21:32;4.40;;;2.60;;
76896;SDS011;65856;52.178;21.176;2023-07-13T11:24:14;11.10;;;2.90;;
76896;SDS011;65856;52.178;21.176;2023-07-13T11:26:43;8.70;;;2.80;;
76896;SDS011;65856;52.178;21.176;2023-07-13T11:31:43;8.60;;;3.50;;
76896;SDS011;65856;52.178;21.176;2023-07-13T11:34:26;9.40;;;4.10;;
76896;SDS011;65856;52.178;21.176;2023-07-13T11:36:56;11.40;;;4.10;;
76896;SDS011;65856;52.178;21.176;2023-07-13T11:39:32;10.30;;;4.80;;
76896;SDS011;65856;52.178;21.176;2023-07-13T11:42:03;11.20;;;4.30;;
76896;SDS011;65856;52.178;21.176;2023-07-13T11:44:42;10.30;;;4.10;;
76896;SDS011;65856;52.178;21.176;2023-07-13T11:47:17;11.30;;;4.50;;
76896;SDS011;65856;52.178;21.176;2023-07-13T11:49:51;8.10;;;4.10;;
76896;SDS011;65856;52.178;21.176;2023-07-13T11:52:32;7.80;;;3.50;;
76896;SDS011;65856;52.178;21.176;2023-07-13T11:55:04;6.00;;;3.50;;
76896;SDS011;65856;52.178;21.176;2023-07-13T11:58:07;6.90;;;3.60;;
76896;SDS011;65856;52.178;21.176;2023-07-13T12:00:35;8.80;;;3.70;;
76896;SDS011;65856;52.178;21.176;2023-07-13T12:03:04;8.10;;;3.30;;
76896;SDS011;65856;52.178;21.176;2023-07-13T12:05:31;8.80;;;3.40;;
76896;SDS011;65856;52.178;21.176;2023-07-13T12:07:57;4.20;;;3.30;;
76896;SDS011;65856;52.178;21.176;2023-07-13T12:10:28;6.70;;;3.50;;
76896;SDS011;65856;52.178;21.176;2023-07-13T12:13:04;3.60;;;2.80;;
76896;SDS011;65856;52.178;21.176;2023-07-13T12:15:43;5.10;;;3.10;;
76896;SDS011;65856;52.178;21.176;2023-07-13T12:18:14;6.50;;;3.40;;
76896;SDS011;65856;52.178;21.176;2023-07-13T12:20:46;4.00;;;2.90;;
76896;SDS011;65856;52.178;21.176;2023-07-13T12:26:01;6.00;;;3.60;;
76896;SDS011;65856;52.178;21.176;2023-07-13T12:28:37;5.40;;;3.80;;
76896;SDS011;65856;52.178;21.176;2023-07-13T12:34:00;6.90;;;3.80;;
76896;SDS011;65856;52.178;21.176;2023-07-13T12:36:35;5.00;;;3.40;;
76896;SDS011;65856;52.178;21.176;2023-07-13T12:39:12;4.90;;;3.80;;
76896;SDS011;65856;52.178;21.176;2023-07-13T12:41:42;6.80;;;3.90;;
76896;SDS011;65856;52.178;21.176;2023-07-13T12:44:30;6.00;;;3.50;;
76896;SDS011;65856;52.178;21.176;2023-07-13T12:47:05;5.80;;;3.90;;
76896;SDS011;65856;52.178;21.176;2023-07-13T12:49:41;5.10;;;3.70;;
76896;SDS011;65856;52.178;21.176;2023-07-13T12:52:20;6.00;;;3.90;;
76896;SDS011;65856;52.178;21.176;2023-07-13T12:54:54;9.70;;;4.20;;
76896;SDS011;65856;52.178;21.176;2023-07-13T12:57:22;6.80;;;4.40;;
76896;SDS011;65856;52.178;21.176;2023-07-13T12:59:52;6.30;;;3.90;;
76896;SDS011;65856;52.178;21.176;2023-07-13T13:02:30;6.80;;;3.80;;
76896;SDS011;65856;52.178;21.176;2023-07-13T13:05:00;6.00;;;4.00;;
76896;SDS011;65856;52.178;21.176;2023-07-13T13:07:28;5.80;;;4.10;;
76896;SDS011;65856;52.178;21.176;2023-07-13T13:09:54;8.40;;;4.80;;
76896;SDS011;65856;52.178;21.176;2023-07-13T13:12:22;6.10;;;4.60;;
76896;SDS011;65856;52.178;21.176;2023-07-13T13:14:50;8.00;;;4.70;;
76896;SDS011;65856;52.178;21.176;2023-07-13T13:17:20;6.40;;;4.50;;
76896;SDS011;65856;52.178;21.176;2023-07-13T13:19:51;5.60;;;4.40;;
76896;SDS011;65856;52.178;21.176;2023-07-13T13:22:19;7.70;;;4.80;;
76896;SDS011;65856;52.178;21.176;2023-07-13T13:24:45;11.30;;;5.10;;
76896;SDS011;65856;52.178;21.176;2023-07-13T13:27:19;9.20;;;4.90;;
76896;SDS011;65856;52.178;21.176;2023-07-13T13:29:49;6.60;;;5.00;;
76896;SDS011;65856;52.178;21.176;2023-07-13T13:32:19;6.20;;;4.80;;
76896;SDS011;65856;52.178;21.176;2023-07-13T13:34:44;6.60;;;5.00;;
76896;SDS011;65856;52.178;21.176;2023-07-13T13:37:17;8.40;;;5.30;;
76896;SDS011;65856;52.178;21.176;2023-07-13T13:39:48;10.50;;;5.50;;
76896;SDS011;65856;52.178;21.176;2023-07-13T13:42:15;7.00;;;5.40;;
76896;SDS011;65856;52.178;21.176;2023-07-13T13:44:40;6.70;;;5.70;;
76896;SDS011;65856;52.178;21.176;2023-07-13T13:47:18;9.30;;;5.90;;
76896;SDS011;65856;52.178;21.176;2023-07-13T13:49:58;7.70;;;5.10;;
76896;SDS011;65856;52.178;21.176;2023-07-13T13:52:24;8.70;;;5.70;;
76896;SDS011;65856;52.178;21.176;2023-07-13T13:54:50;8.80;;;6.00;;
76896;SDS011;65856;52.178;21.176;2023-07-13T13:57:23;10.90;;;5.90;;
76896;SDS011;65856;52.178;21.176;2023-07-13T13:59:53;8.90;;;5.90;;
76896;SDS011;65856;52.178;21.176;2023-07-13T14:02:28;9.50;;;6.30;;
76896;SDS011;65856;52.178;21.176;2023-07-13T14:04:58;8.70;;;6.50;;
76896;SDS011;65856;52.178;21.176;2023-07-13T14:07:27;10.20;;;6.90;;
76896;SDS011;65856;52.178;21.176;2023-07-13T14:09:56;9.30;;;6.20;;
76896;SDS011;65856;52.178;21.176;2023-07-13T14:12:24;11.40;;;7.10;;
76896;SDS011;65856;52.178;21.176;2023-07-13T14:14:53;10.40;;;6.10;;
76896;SDS011;65856;52.178;21.176;2023-07-13T14:17:21;8.60;;;6.60;;
76896;SDS011;65856;52.178;21.176;2023-07-13T14:19:51;9.80;;;6.50;;
76896;SDS011;65856;52.178;21.176;2023-07-13T14:22:22;46.60;;;10.10;;
76896;SDS011;65856;52.178;21.176;2023-07-13T14:24:53;11.00;;;6.20;;
76896;SDS011;65856;52.178;21.176;2023-07-13T14:27:19;10.50;;;6.50;;
76896;SDS011;65856;52.178;21.176;2023-07-13T14:29:46;10.20;;;6.40;;
76896;SDS011;65856;52.178;21.176;2023-07-13T14:32:12;11.60;;;6.50;;
76896;SDS011;65856;52.178;21.176;2023-07-13T14:34:38;8.50;;;6.20;;
76896;SDS011;65856;52.178;21.176;2023-07-13T14:37:05;7.00;;;6.30;;
76896;SDS011;65856;52.178;21.176;2023-07-13T14:39:38;7.90;;;6.20;;
76896;SDS011;65856;52.178;21.176;2023-07-13T14:42:03;9.30;;;6.70;;
76896;SDS011;65856;52.178;21.176;2023-07-13T14:44:30;9.90;;;6.50;;
76896;SDS011;65856;52.178;21.176;2023-07-13T14:46:58;8.40;;;6.00;;
76896;SDS011;65856;52.178;21.176;2023-07-13T14:49:30;7.90;;;6.30;;
76896;SDS011;65856;52.178;21.176;2023-07-13T14:52:11;7.00;;;6.30;;
76896;SDS011;65856;52.178;21.176;2023-07-13T14:54:46;9.30;;;5.60;;
76896;SDS011;65856;52.178;21.176;2023-07-13T14:57:14;8.80;;;6.30;;
76896;SDS011;65856;52.178;21.176;2023-07-13T14:59:44;9.00;;;6.10;;
76896;SDS011;65856;52.178;21.176;2023-07-13T15:02:33;10.50;;;6.60;;
76896;SDS011;65856;52.178;21.176;2023-07-13T15:05:01;9.70;;;6.50;;
76896;SDS011;65856;52.178;21.176;2023-07-13T15:07:27;7.10;;;5.90;;
76896;SDS011;65856;52.178;21.176;2023-07-13T15:09:52;7.80;;;5.90;;
76896;SDS011;65856;52.178;21.176;2023-07-13T15:12:18;7.10;;;5.70;;
76896;SDS011;65856;52.178;21.176;2023-07-13T15:14:45;8.00;;;5.60;;
76896;SDS011;65856;52.178;21.176;2023-07-13T15:17:40;7.40;;;6.00;;